sensor_id;sensor_type;location;lat;lon;timestamp;P1;durP1;ratioP1;P2;durP2;ratioP2
24279;SDS011;12395;42.808;23.408;2023-05-10T00:01:50;7.03;;;3.13;;
24279;SDS011;12395;42.808;23.408;2023-05-10T00:04:16;5.40;;;2.92;;
24279;SDS011;12395;42.808;23.408;2023-05-10T00:06:41;5.45;;;3.03;;
24279;SDS011;12395;42.808;23.408;2023-05-10T00:09:07;5.28;;;3.20;;
24279;SDS011;12395;42.808;23.408;2023-05-10T00:11:32;5.50;;;3.20;;
24279;SDS011;12395;42.808;23.408;2023-05-10T00:13:57;6.15;;;3.35;;
24279;SDS011;12395;42.808;23.408;2023-05-10T00:16:23;5.55;;;3.45;;
24279;SDS011;12395;42.808;23.408;2023-05-10T00:18:48;5.43;;;3.28;;
24279;SDS011;12395;42.808;23.408;2023-05-10T00:21:14;5.75;;;3.40;;
24279;SDS011;12395;42.808;23.408;2023-05-10T00:23:39;7.43;;;3.70;;
24279;SDS011;12395;42.808;23.408;2023-05-10T00:26:05;5.80;;;3.63;;
24279;SDS011;12395;42.808;23.408;2023-05-10T00:28:30;6.10;;;3.60;;
24279;SDS011;12395;42.808;23.408;2023-05-10T00:30:55;6.60;;;3.55;;
24279;SDS011;12395;42.808;23.408;2023-05-10T00:33:21;5.60;;;3.45;;
24279;SDS011;12395;42.808;23.408;2023-05-10T00:35:46;5.25;;;3.30;;
24279;SDS011;12395;42.808;23.408;2023-05-10T00:38:12;7.35;;;3.67;;
24279;SDS011;12395;42.808;23.408;2023-05-10T00:40:37;7.05;;;3.95;;
24279;SDS011;12395;42.808;23.408;2023-05-10T00:43:03;5.15;;;3.58;;
24279;SDS011;12395;42.808;23.408;2023-05-10T00:45:30;8.77;;;3.88;;
24279;SDS011;12395;42.808;23.408;2023-05-10T00:47:56;7.32;;;4.10;;
24279;SDS011;12395;42.808;23.408;2023-05-10T00:50:22;7.15;;;4.22;;
24279;SDS011;12395;42.808;23.408;2023-05-10T00:52:48;8.05;;;4.45;;
24279;SDS011;12395;42.808;23.408;2023-05-10T00:55:14;7.50;;;4.57;;
24279;SDS011;12395;42.808;23.408;2023-05-10T00:57:39;7.72;;;4.38;;
24279;SDS011;12395;42.808;23.408;2023-05-10T01:00:06;7.18;;;4.50;;
24279;SDS011;12395;42.808;23.408;2023-05-10T01:02:33;7.80;;;4.38;;
24279;SDS011;12395;42.808;23.408;2023-05-10T01:04:59;8.50;;;4.47;;
24279;SDS011;12395;42.808;23.408;2023-05-10T01:07:26;7.78;;;4.28;;
24279;SDS011;12395;42.808;23.408;2023-05-10T01:09:51;6.40;;;3.83;;
24279;SDS011;12395;42.808;23.408;2023-05-10T01:12:17;6.95;;;4.18;;
24279;SDS011;12395;42.808;23.408;2023-05-10T01:14:43;8.20;;;4.22;;
24279;SDS011;12395;42.808;23.408;2023-05-10T01:17:08;6.43;;;3.80;;
24279;SDS011;12395;42.808;23.408;2023-05-10T01:19:35;6.60;;;3.88;;
24279;SDS011;12395;42.808;23.408;2023-05-10T01:25:07;5.60;;;3.47;;
24279;SDS011;12395;42.808;23.408;2023-05-10T01:39:02;6.10;;;3.50;;
24279;SDS011;12395;42.808;23.408;2023-05-10T01:44:13;7.40;;;3.28;;
24279;SDS011;12395;42.808;23.408;2023-05-10T01:46:48;5.45;;;3.38;;
24279;SDS011;12395;42.808;23.408;2023-05-10T01:49:23;5.68;;;3.13;;
24279;SDS011;12395;42.808;23.408;2023-05-10T01:51:52;6.40;;;3.40;;
24279;SDS011;12395;42.808;23.408;2023-05-10T01:54:22;6.10;;;3.58;;
24279;SDS011;12395;42.808;23.408;2023-05-10T01:57:01;5.60;;;3.40;;
24279;SDS011;12395;42.808;23.408;2023-05-10T01:59:30;6.40;;;3.50;;
24279;SDS011;12395;42.808;23.408;2023-05-10T02:02:01;6.20;;;3.60;;
24279;SDS011;12395;42.808;23.408;2023-05-10T02:04:29;7.00;;;3.55;;
24279;SDS011;12395;42.808;23.408;2023-05-10T02:06:55;6.05;;;3.72;;
24279;SDS011;12395;42.808;23.408;2023-05-10T02:09:21;6.72;;;3.67;;
24279;SDS011;12395;42.808;23.408;2023-05-10T02:11:49;7.30;;;3.67;;
24279;SDS011;12395;42.808;23.408;2023-05-10T02:14:15;7.20;;;3.88;;
24279;SDS011;12395;42.808;23.408;2023-05-10T02:16:42;7.45;;;4.18;;
24279;SDS011;12395;42.808;23.408;2023-05-10T02:19:08;7.07;;;4.07;;
24279;SDS011;12395;42.808;23.408;2023-05-10T02:21:35;7.55;;;4.00;;
24279;SDS011;12395;42.808;23.408;2023-05-10T02:24:02;7.40;;;4.18;;
24279;SDS011;12395;42.808;23.408;2023-05-10T02:26:29;9.57;;;6.20;;
24279;SDS011;12395;42.808;23.408;2023-05-10T02:28:58;10.73;;;6.90;;
24279;SDS011;12395;42.808;23.408;2023-05-10T02:31:25;12.77;;;7.85;;
24279;SDS011;12395;42.808;23.408;2023-05-10T02:33:51;12.50;;;7.55;;
24279;SDS011;12395;42.808;23.408;2023-05-10T02:36:17;11.68;;;7.75;;
24279;SDS011;12395;42.808;23.408;2023-05-10T02:38:46;11.25;;;7.47;;
24279;SDS011;12395;42.808;23.408;2023-05-10T02:41:12;11.40;;;7.10;;
24279;SDS011;12395;42.808;23.408;2023-05-10T02:43:39;11.57;;;6.97;;
24279;SDS011;12395;42.808;23.408;2023-05-10T02:46:05;11.20;;;6.80;;
24279;SDS011;12395;42.808;23.408;2023-05-10T02:48:31;9.95;;;6.65;;
24279;SDS011;12395;42.808;23.408;2023-05-10T02:50:59;11.23;;;6.63;;
24279;SDS011;12395;42.808;23.408;2023-05-10T02:53:33;11.68;;;6.65;;
24279;SDS011;12395;42.808;23.408;2023-05-10T02:56:01;9.80;;;6.15;;
24279;SDS011;12395;42.808;23.408;2023-05-10T02:58:35;11.10;;;6.25;;
24279;SDS011;12395;42.808;23.408;2023-05-10T03:01:01;10.50;;;5.68;;
24279;SDS011;12395;42.808;23.408;2023-05-10T03:03:26;8.25;;;4.90;;
24279;SDS011;12395;42.808;23.408;2023-05-10T03:05:51;7.05;;;4.63;;
24279;SDS011;12395;42.808;23.408;2023-05-10T03:08:20;8.25;;;4.65;;
24279;SDS011;12395;42.808;23.408;2023-05-10T03:10:54;7.70;;;4.43;;
24279;SDS011;12395;42.808;23.408;2023-05-10T03:13:33;7.70;;;4.57;;
24279;SDS011;12395;42.808;23.408;2023-05-10T03:16:14;10.02;;;4.82;;
24279;SDS011;12395;42.808;23.408;2023-05-10T03:21:09;8.68;;;5.43;;
24279;SDS011;12395;42.808;23.408;2023-05-10T03:23:47;9.73;;;5.57;;
24279;SDS011;12395;42.808;23.408;2023-05-10T03:26:17;9.70;;;4.50;;
24279;SDS011;12395;42.808;23.408;2023-05-10T03:28:48;7.30;;;4.70;;
24279;SDS011;12395;42.808;23.408;2023-05-10T03:31:14;8.88;;;4.72;;
24279;SDS011;12395;42.808;23.408;2023-05-10T03:33:50;8.18;;;4.63;;
24279;SDS011;12395;42.808;23.408;2023-05-10T03:36:17;7.82;;;4.30;;
24279;SDS011;12395;42.808;23.408;2023-05-10T03:38:43;8.07;;;4.35;;
24279;SDS011;12395;42.808;23.408;2023-05-10T03:41:08;7.32;;;4.25;;
24279;SDS011;12395;42.808;23.408;2023-05-10T03:43:34;9.23;;;3.80;;
24279;SDS011;12395;42.808;23.408;2023-05-10T03:46:01;6.93;;;3.72;;
24279;SDS011;12395;42.808;23.408;2023-05-10T03:48:30;7.53;;;4.10;;
24279;SDS011;12395;42.808;23.408;2023-05-10T03:50:58;6.80;;;4.20;;
24279;SDS011;12395;42.808;23.408;2023-05-10T03:53:23;8.02;;;4.45;;
24279;SDS011;12395;42.808;23.408;2023-05-10T03:55:49;7.88;;;4.05;;
24279;SDS011;12395;42.808;23.408;2023-05-10T03:58:15;8.32;;;4.60;;
24279;SDS011;12395;42.808;23.408;2023-05-10T04:00:40;8.30;;;4.60;;
24279;SDS011;12395;42.808;23.408;2023-05-10T04:03:10;7.80;;;4.70;;
24279;SDS011;12395;42.808;23.408;2023-05-10T04:05:39;9.45;;;5.00;;
24279;SDS011;12395;42.808;23.408;2023-05-10T04:08:05;10.77;;;4.70;;
24279;SDS011;12395;42.808;23.408;2023-05-10T04:10:30;8.50;;;4.50;;
24279;SDS011;12395;42.808;23.408;2023-05-10T04:12:56;9.77;;;4.65;;
24279;SDS011;12395;42.808;23.408;2023-05-10T04:15:21;8.70;;;4.38;;
24279;SDS011;12395;42.808;23.408;2023-05-10T04:17:47;7.05;;;4.18;;
24279;SDS011;12395;42.808;23.408;2023-05-10T04:20:13;9.82;;;4.60;;
24279;SDS011;12395;42.808;23.408;2023-05-10T04:22:38;8.52;;;4.00;;
24279;SDS011;12395;42.808;23.408;2023-05-10T04:25:04;9.73;;;4.43;;
24279;SDS011;12395;42.808;23.408;2023-05-10T04:27:31;6.87;;;4.00;;
24279;SDS011;12395;42.808;23.408;2023-05-10T04:29:56;7.78;;;3.92;;
24279;SDS011;12395;42.808;23.408;2023-05-10T04:32:22;7.00;;;3.90;;
24279;SDS011;12395;42.808;23.408;2023-05-10T04:34:47;8.15;;;3.72;;
24279;SDS011;12395;42.808;23.408;2023-05-10T04:37:13;7.15;;;3.45;;
24279;SDS011;12395;42.808;23.408;2023-05-10T04:39:38;5.90;;;3.58;;
24279;SDS011;12395;42.808;23.408;2023-05-10T04:42:04;5.53;;;3.20;;
24279;SDS011;12395;42.808;23.408;2023-05-10T04:44:30;6.22;;;3.60;;
24279;SDS011;12395;42.808;23.408;2023-05-10T04:46:56;6.88;;;3.95;;
24279;SDS011;12395;42.808;23.408;2023-05-10T04:49:22;6.78;;;3.30;;
24279;SDS011;12395;42.808;23.408;2023-05-10T04:51:47;5.60;;;3.42;;
24279;SDS011;12395;42.808;23.408;2023-05-10T04:54:12;7.90;;;3.40;;
24279;SDS011;12395;42.808;23.408;2023-05-10T04:56:38;7.05;;;3.20;;
24279;SDS011;12395;42.808;23.408;2023-05-10T04:59:03;4.82;;;2.92;;
24279;SDS011;12395;42.808;23.408;2023-05-10T05:01:29;6.10;;;3.20;;
24279;SDS011;12395;42.808;23.408;2023-05-10T05:03:54;5.43;;;3.05;;
24279;SDS011;12395;42.808;23.408;2023-05-10T05:06:20;6.60;;;3.28;;
24279;SDS011;12395;42.808;23.408;2023-05-10T05:08:49;7.13;;;2.80;;
24279;SDS011;12395;42.808;23.408;2023-05-10T05:11:15;4.38;;;2.85;;
24279;SDS011;12395;42.808;23.408;2023-05-10T05:13:40;5.20;;;3.15;;
24279;SDS011;12395;42.808;23.408;2023-05-10T05:16:06;6.93;;;2.88;;
24279;SDS011;12395;42.808;23.408;2023-05-10T05:18:31;5.40;;;3.03;;
24279;SDS011;12395;42.808;23.408;2023-05-10T05:20:57;5.97;;;3.17;;
24279;SDS011;12395;42.808;23.408;2023-05-10T05:23:22;6.88;;;2.90;;
24279;SDS011;12395;42.808;23.408;2023-05-10T05:25:50;5.07;;;3.03;;
24279;SDS011;12395;42.808;23.408;2023-05-10T05:28:16;5.57;;;3.00;;
24279;SDS011;12395;42.808;23.408;2023-05-10T05:30:42;5.88;;;3.00;;
24279;SDS011;12395;42.808;23.408;2023-05-10T05:33:07;5.95;;;3.30;;
24279;SDS011;12395;42.808;23.408;2023-05-10T05:35:33;5.40;;;3.17;;
24279;SDS011;12395;42.808;23.408;2023-05-10T05:37:58;5.55;;;3.03;;
24279;SDS011;12395;42.808;23.408;2023-05-10T05:40:23;5.90;;;2.90;;
24279;SDS011;12395;42.808;23.408;2023-05-10T05:42:49;7.70;;;2.80;;
24279;SDS011;12395;42.808;23.408;2023-05-10T05:45:14;4.50;;;3.15;;
24279;SDS011;12395;42.808;23.408;2023-05-10T05:47:40;3.72;;;2.53;;
24279;SDS011;12395;42.808;23.408;2023-05-10T05:50:06;4.80;;;3.00;;
24279;SDS011;12395;42.808;23.408;2023-05-10T05:52:31;6.00;;;3.17;;
24279;SDS011;12395;42.808;23.408;2023-05-10T05:54:57;5.60;;;2.80;;
24279;SDS011;12395;42.808;23.408;2023-05-10T05:57:22;3.15;;;2.35;;
24279;SDS011;12395;42.808;23.408;2023-05-10T05:59:48;5.60;;;2.75;;
24279;SDS011;12395;42.808;23.408;2023-05-10T06:02:13;4.20;;;2.42;;
24279;SDS011;12395;42.808;23.408;2023-05-10T06:04:38;3.83;;;2.42;;
24279;SDS011;12395;42.808;23.408;2023-05-10T06:07:07;5.03;;;2.55;;
24279;SDS011;12395;42.808;23.408;2023-05-10T06:09:32;4.15;;;2.42;;
24279;SDS011;12395;42.808;23.408;2023-05-10T06:11:58;4.82;;;2.60;;
24279;SDS011;12395;42.808;23.408;2023-05-10T06:14:23;4.85;;;2.90;;
24279;SDS011;12395;42.808;23.408;2023-05-10T06:16:48;6.15;;;2.60;;
24279;SDS011;12395;42.808;23.408;2023-05-10T06:19:14;5.28;;;2.72;;
24279;SDS011;12395;42.808;23.408;2023-05-10T06:21:39;4.50;;;2.88;;
24279;SDS011;12395;42.808;23.408;2023-05-10T06:24:05;5.43;;;2.60;;
24279;SDS011;12395;42.808;23.408;2023-05-10T06:26:31;7.50;;;2.70;;
24279;SDS011;12395;42.808;23.408;2023-05-10T06:28:57;4.97;;;2.60;;
24279;SDS011;12395;42.808;23.408;2023-05-10T06:31:22;5.00;;;2.67;;
24279;SDS011;12395;42.808;23.408;2023-05-10T06:33:48;4.63;;;2.60;;
24279;SDS011;12395;42.808;23.408;2023-05-10T06:36:13;5.00;;;2.45;;
24279;SDS011;12395;42.808;23.408;2023-05-10T06:38:39;4.82;;;2.78;;
24279;SDS011;12395;42.808;23.408;2023-05-10T06:41:04;4.65;;;2.60;;
24279;SDS011;12395;42.808;23.408;2023-05-10T06:43:30;3.42;;;2.35;;
24279;SDS011;12395;42.808;23.408;2023-05-10T06:45:56;3.85;;;2.50;;
24279;SDS011;12395;42.808;23.408;2023-05-10T06:48:21;3.63;;;2.50;;
24279;SDS011;12395;42.808;23.408;2023-05-10T06:50:47;3.97;;;2.50;;
24279;SDS011;12395;42.808;23.408;2023-05-10T06:53:12;5.13;;;2.58;;
24279;SDS011;12395;42.808;23.408;2023-05-10T06:55:38;5.10;;;2.58;;
24279;SDS011;12395;42.808;23.408;2023-05-10T06:58:04;6.32;;;2.80;;
24279;SDS011;12395;42.808;23.408;2023-05-10T07:00:29;4.75;;;2.47;;
24279;SDS011;12395;42.808;23.408;2023-05-10T07:02:54;5.00;;;2.60;;
24279;SDS011;12395;42.808;23.408;2023-05-10T07:05:20;4.47;;;2.50;;
24279;SDS011;12395;42.808;23.408;2023-05-10T07:07:46;3.97;;;2.47;;
24279;SDS011;12395;42.808;23.408;2023-05-10T07:10:11;4.80;;;2.40;;
24279;SDS011;12395;42.808;23.408;2023-05-10T07:12:37;7.03;;;3.00;;
24279;SDS011;12395;42.808;23.408;2023-05-10T07:15:03;4.88;;;3.20;;
24279;SDS011;12395;42.808;23.408;2023-05-10T07:17:29;4.53;;;2.92;;
24279;SDS011;12395;42.808;23.408;2023-05-10T07:19:54;6.53;;;3.05;;
24279;SDS011;12395;42.808;23.408;2023-05-10T07:22:20;4.95;;;3.00;;
24279;SDS011;12395;42.808;23.408;2023-05-10T07:24:45;4.97;;;2.83;;
24279;SDS011;12395;42.808;23.408;2023-05-10T07:27:11;5.07;;;2.95;;
24279;SDS011;12395;42.808;23.408;2023-05-10T07:29:37;6.10;;;3.05;;
24279;SDS011;12395;42.808;23.408;2023-05-10T07:32:03;4.68;;;3.00;;
24279;SDS011;12395;42.808;23.408;2023-05-10T07:34:29;5.03;;;2.92;;
24279;SDS011;12395;42.808;23.408;2023-05-10T07:36:56;6.47;;;3.13;;
24279;SDS011;12395;42.808;23.408;2023-05-10T07:41:48;5.80;;;3.22;;
24279;SDS011;12395;42.808;23.408;2023-05-10T07:44:13;6.70;;;3.20;;
24279;SDS011;12395;42.808;23.408;2023-05-10T07:46:39;5.57;;;3.00;;
24279;SDS011;12395;42.808;23.408;2023-05-10T07:49:04;7.65;;;3.47;;
24279;SDS011;12395;42.808;23.408;2023-05-10T07:51:30;5.50;;;3.00;;
24279;SDS011;12395;42.808;23.408;2023-05-10T07:53:55;5.78;;;2.95;;
24279;SDS011;12395;42.808;23.408;2023-05-10T07:58:48;4.68;;;3.10;;
24279;SDS011;12395;42.808;23.408;2023-05-10T08:01:13;6.00;;;3.13;;
24279;SDS011;12395;42.808;23.408;2023-05-10T08:03:39;4.35;;;2.90;;
24279;SDS011;12395;42.808;23.408;2023-05-10T08:06:04;5.45;;;3.20;;
24279;SDS011;12395;42.808;23.408;2023-05-10T08:08:30;4.95;;;3.40;;
24279;SDS011;12395;42.808;23.408;2023-05-10T08:10:56;5.03;;;3.00;;
24279;SDS011;12395;42.808;23.408;2023-05-10T08:13:21;6.10;;;3.10;;
24279;SDS011;12395;42.808;23.408;2023-05-10T08:15:48;6.50;;;3.45;;
24279;SDS011;12395;42.808;23.408;2023-05-10T08:18:13;5.80;;;3.45;;
24279;SDS011;12395;42.808;23.408;2023-05-10T08:20:38;5.10;;;3.08;;
24279;SDS011;12395;42.808;23.408;2023-05-10T08:23:04;4.97;;;3.20;;
24279;SDS011;12395;42.808;23.408;2023-05-10T08:25:30;4.55;;;3.17;;
24279;SDS011;12395;42.808;23.408;2023-05-10T08:27:56;7.95;;;3.35;;
24279;SDS011;12395;42.808;23.408;2023-05-10T08:30:21;5.32;;;3.30;;
24279;SDS011;12395;42.808;23.408;2023-05-10T08:32:47;6.45;;;3.47;;
24279;SDS011;12395;42.808;23.408;2023-05-10T08:35:12;5.85;;;3.13;;
24279;SDS011;12395;42.808;23.408;2023-05-10T08:37:38;5.80;;;3.20;;
24279;SDS011;12395;42.808;23.408;2023-05-10T08:40:03;5.72;;;3.20;;
24279;SDS011;12395;42.808;23.408;2023-05-10T08:42:30;7.07;;;3.47;;
24279;SDS011;12395;42.808;23.408;2023-05-10T08:44:58;6.05;;;3.70;;
24279;SDS011;12395;42.808;23.408;2023-05-10T08:47:24;6.70;;;3.75;;
24279;SDS011;12395;42.808;23.408;2023-05-10T08:49:50;5.85;;;3.47;;
24279;SDS011;12395;42.808;23.408;2023-05-10T08:52:17;6.28;;;3.80;;
24279;SDS011;12395;42.808;23.408;2023-05-10T08:54:43;5.93;;;3.90;;
24279;SDS011;12395;42.808;23.408;2023-05-10T08:57:09;5.32;;;3.63;;
24279;SDS011;12395;42.808;23.408;2023-05-10T08:59:35;5.47;;;3.80;;
24279;SDS011;12395;42.808;23.408;2023-05-10T09:02:04;5.53;;;3.40;;
24279;SDS011;12395;42.808;23.408;2023-05-10T09:04:29;5.75;;;3.70;;
24279;SDS011;12395;42.808;23.408;2023-05-10T09:06:56;5.53;;;3.42;;
24279;SDS011;12395;42.808;23.408;2023-05-10T09:09:22;4.57;;;3.40;;
24279;SDS011;12395;42.808;23.408;2023-05-10T09:11:49;6.40;;;3.50;;
24279;SDS011;12395;42.808;23.408;2023-05-10T09:14:14;7.60;;;3.95;;
24279;SDS011;12395;42.808;23.408;2023-05-10T09:16:40;5.35;;;3.42;;
24279;SDS011;12395;42.808;23.408;2023-05-10T09:19:06;7.63;;;3.50;;
24279;SDS011;12395;42.808;23.408;2023-05-10T09:21:34;6.07;;;3.50;;
24279;SDS011;12395;42.808;23.408;2023-05-10T09:24:06;5.72;;;3.67;;
24279;SDS011;12395;42.808;23.408;2023-05-10T09:26:32;4.85;;;3.40;;
24279;SDS011;12395;42.808;23.408;2023-05-10T09:28:59;6.40;;;3.65;;
24279;SDS011;12395;42.808;23.408;2023-05-10T09:31:42;5.67;;;3.60;;
24279;SDS011;12395;42.808;23.408;2023-05-10T09:34:29;6.00;;;3.80;;
24279;SDS011;12395;42.808;23.408;2023-05-10T09:36:56;5.47;;;3.50;;
24279;SDS011;12395;42.808;23.408;2023-05-10T09:39:35;6.55;;;3.40;;
24279;SDS011;12395;42.808;23.408;2023-05-10T09:42:03;6.28;;;3.47;;
24279;SDS011;12395;42.808;23.408;2023-05-10T09:44:30;4.97;;;3.08;;
24279;SDS011;12395;42.808;23.408;2023-05-10T09:46:56;5.28;;;3.25;;
24279;SDS011;12395;42.808;23.408;2023-05-10T09:49:22;5.05;;;3.20;;
24279;SDS011;12395;42.808;23.408;2023-05-10T09:51:56;8.00;;;3.10;;
24279;SDS011;12395;42.808;23.408;2023-05-10T09:54:27;4.35;;;2.75;;
24279;SDS011;12395;42.808;23.408;2023-05-10T09:56:53;4.57;;;3.00;;
24279;SDS011;12395;42.808;23.408;2023-05-10T09:59:18;5.90;;;3.20;;
24279;SDS011;12395;42.808;23.408;2023-05-10T10:01:49;7.32;;;3.25;;
24279;SDS011;12395;42.808;23.408;2023-05-10T10:04:15;5.05;;;3.00;;
24279;SDS011;12395;42.808;23.408;2023-05-10T10:06:41;5.18;;;2.88;;
24279;SDS011;12395;42.808;23.408;2023-05-10T10:09:07;5.25;;;2.90;;
24279;SDS011;12395;42.808;23.408;2023-05-10T10:11:37;3.95;;;2.90;;
24279;SDS011;12395;42.808;23.408;2023-05-10T10:14:03;6.00;;;2.67;;
24279;SDS011;12395;42.808;23.408;2023-05-10T10:16:29;5.00;;;3.05;;
24279;SDS011;12395;42.808;23.408;2023-05-10T10:18:56;4.63;;;2.90;;
24279;SDS011;12395;42.808;23.408;2023-05-10T10:21:21;4.75;;;2.90;;
24279;SDS011;12395;42.808;23.408;2023-05-10T10:23:47;3.58;;;2.80;;
24279;SDS011;12395;42.808;23.408;2023-05-10T10:26:13;6.13;;;2.70;;
24279;SDS011;12395;42.808;23.408;2023-05-10T10:28:49;4.80;;;2.53;;
24279;SDS011;12395;42.808;23.408;2023-05-10T10:34:01;4.68;;;2.90;;
24279;SDS011;12395;42.808;23.408;2023-05-10T10:36:30;8.32;;;3.03;;
24279;SDS011;12395;42.808;23.408;2023-05-10T10:47:00;3.97;;;2.80;;
24279;SDS011;12395;42.808;23.408;2023-05-10T10:57:55;4.47;;;2.75;;
24279;SDS011;12395;42.808;23.408;2023-05-10T11:00:33;9.70;;;3.17;;
24279;SDS011;12395;42.808;23.408;2023-05-10T11:03:08;4.10;;;2.90;;
24279;SDS011;12395;42.808;23.408;2023-05-10T11:05:47;4.28;;;2.80;;
24279;SDS011;12395;42.808;23.408;2023-05-10T11:11:14;5.30;;;3.10;;
24279;SDS011;12395;42.808;23.408;2023-05-10T11:13:40;5.95;;;2.72;;
24279;SDS011;12395;42.808;23.408;2023-05-10T11:16:11;4.50;;;2.83;;
24279;SDS011;12395;42.808;23.408;2023-05-10T11:18:39;7.07;;;3.20;;
24279;SDS011;12395;42.808;23.408;2023-05-10T11:21:05;4.80;;;3.05;;
24279;SDS011;12395;42.808;23.408;2023-05-10T11:23:57;7.25;;;3.03;;
24279;SDS011;12395;42.808;23.408;2023-05-10T11:26:25;3.95;;;2.58;;
24279;SDS011;12395;42.808;23.408;2023-05-10T11:28:55;5.25;;;2.95;;
24279;SDS011;12395;42.808;23.408;2023-05-10T11:31:21;6.05;;;3.10;;
24279;SDS011;12395;42.808;23.408;2023-05-10T11:33:49;4.30;;;2.80;;
24279;SDS011;12395;42.808;23.408;2023-05-10T11:36:20;5.38;;;3.00;;
24279;SDS011;12395;42.808;23.408;2023-05-10T11:38:47;5.03;;;2.88;;
24279;SDS011;12395;42.808;23.408;2023-05-10T11:41:13;5.85;;;3.25;;
24279;SDS011;12395;42.808;23.408;2023-05-10T11:43:40;5.15;;;3.00;;
24279;SDS011;12395;42.808;23.408;2023-05-10T11:46:10;5.10;;;3.03;;
24279;SDS011;12395;42.808;23.408;2023-05-10T11:48:39;7.20;;;3.50;;
24279;SDS011;12395;42.808;23.408;2023-05-10T11:51:08;6.75;;;3.15;;
24279;SDS011;12395;42.808;23.408;2023-05-10T11:53:35;5.97;;;3.17;;
24279;SDS011;12395;42.808;23.408;2023-05-10T11:56:05;5.13;;;2.67;;
24279;SDS011;12395;42.808;23.408;2023-05-10T11:58:31;8.07;;;3.67;;
24279;SDS011;12395;42.808;23.408;2023-05-10T12:00:58;4.10;;;2.85;;
24279;SDS011;12395;42.808;23.408;2023-05-10T12:03:24;4.95;;;2.80;;
24279;SDS011;12395;42.808;23.408;2023-05-10T12:05:50;5.18;;;3.03;;
24279;SDS011;12395;42.808;23.408;2023-05-10T12:08:20;5.75;;;3.00;;
24279;SDS011;12395;42.808;23.408;2023-05-10T12:10:46;5.15;;;3.25;;
24279;SDS011;12395;42.808;23.408;2023-05-10T12:13:12;4.97;;;2.90;;
24279;SDS011;12395;42.808;23.408;2023-05-10T12:15:39;3.60;;;2.75;;
24279;SDS011;12395;42.808;23.408;2023-05-10T12:18:04;4.65;;;3.15;;
24279;SDS011;12395;42.808;23.408;2023-05-10T12:20:30;4.50;;;2.80;;
24279;SDS011;12395;42.808;23.408;2023-05-10T12:22:56;4.13;;;3.00;;
24279;SDS011;12395;42.808;23.408;2023-05-10T12:25:24;4.85;;;2.72;;
24279;SDS011;12395;42.808;23.408;2023-05-10T12:27:56;5.95;;;3.08;;
24279;SDS011;12395;42.808;23.408;2023-05-10T12:30:23;5.50;;;2.90;;
24279;SDS011;12395;42.808;23.408;2023-05-10T12:32:49;3.92;;;2.70;;
24279;SDS011;12395;42.808;23.408;2023-05-10T12:35:15;4.53;;;2.90;;
24279;SDS011;12395;42.808;23.408;2023-05-10T12:37:42;8.40;;;3.20;;
24279;SDS011;12395;42.808;23.408;2023-05-10T12:40:09;4.57;;;3.17;;
24279;SDS011;12395;42.808;23.408;2023-05-10T12:42:36;4.65;;;3.10;;
24279;SDS011;12395;42.808;23.408;2023-05-10T12:45:03;5.60;;;3.07;;
24279;SDS011;12395;42.808;23.408;2023-05-10T12:47:29;4.43;;;3.03;;
24279;SDS011;12395;42.808;23.408;2023-05-10T12:49:55;5.13;;;3.00;;
24279;SDS011;12395;42.808;23.408;2023-05-10T12:52:20;4.47;;;2.97;;
24279;SDS011;12395;42.808;23.408;2023-05-10T12:54:46;3.85;;;2.90;;
24279;SDS011;12395;42.808;23.408;2023-05-10T12:57:12;6.53;;;3.10;;
24279;SDS011;12395;42.808;23.408;2023-05-10T12:59:38;5.18;;;3.00;;
24279;SDS011;12395;42.808;23.408;2023-05-10T13:02:04;6.95;;;3.30;;
24279;SDS011;12395;42.808;23.408;2023-05-10T13:04:29;5.60;;;3.20;;
24279;SDS011;12395;42.808;23.408;2023-05-10T13:06:55;5.43;;;3.03;;
24279;SDS011;12395;42.808;23.408;2023-05-10T13:09:23;6.43;;;3.40;;
24279;SDS011;12395;42.808;23.408;2023-05-10T13:11:53;7.07;;;3.28;;
24279;SDS011;12395;42.808;23.408;2023-05-10T13:14:19;6.78;;;3.60;;
24279;SDS011;12395;42.808;23.408;2023-05-10T13:16:45;6.70;;;3.13;;
24279;SDS011;12395;42.808;23.408;2023-05-10T13:19:12;7.15;;;3.42;;
24279;SDS011;12395;42.808;23.408;2023-05-10T13:21:38;5.85;;;3.28;;
24279;SDS011;12395;42.808;23.408;2023-05-10T13:24:03;5.93;;;3.40;;
24279;SDS011;12395;42.808;23.408;2023-05-10T13:26:29;5.43;;;3.35;;
24279;SDS011;12395;42.808;23.408;2023-05-10T13:28:54;5.65;;;3.60;;
24279;SDS011;12395;42.808;23.408;2023-05-10T13:31:20;5.47;;;3.30;;
24279;SDS011;12395;42.808;23.408;2023-05-10T13:33:46;7.53;;;3.70;;
24279;SDS011;12395;42.808;23.408;2023-05-10T13:36:11;4.65;;;3.25;;
24279;SDS011;12395;42.808;23.408;2023-05-10T13:38:37;6.05;;;3.72;;
24279;SDS011;12395;42.808;23.408;2023-05-10T13:41:02;7.18;;;3.78;;
24279;SDS011;12395;42.808;23.408;2023-05-10T13:43:29;6.43;;;3.83;;
24279;SDS011;12395;42.808;23.408;2023-05-10T13:45:54;5.88;;;3.67;;
24279;SDS011;12395;42.808;23.408;2023-05-10T13:48:20;7.20;;;3.97;;
24279;SDS011;12395;42.808;23.408;2023-05-10T13:50:46;6.13;;;3.80;;
24279;SDS011;12395;42.808;23.408;2023-05-10T13:53:11;7.57;;;4.03;;
24279;SDS011;12395;42.808;23.408;2023-05-10T13:58:59;6.85;;;3.80;;
24279;SDS011;12395;42.808;23.408;2023-05-10T14:01:24;6.15;;;3.72;;
24279;SDS011;12395;42.808;23.408;2023-05-10T14:03:49;6.30;;;4.00;;
24279;SDS011;12395;42.808;23.408;2023-05-10T14:06:15;10.63;;;4.20;;
24279;SDS011;12395;42.808;23.408;2023-05-10T14:08:40;6.22;;;4.07;;
24279;SDS011;12395;42.808;23.408;2023-05-10T14:11:06;9.98;;;4.32;;
24279;SDS011;12395;42.808;23.408;2023-05-10T14:13:31;6.60;;;3.70;;
24279;SDS011;12395;42.808;23.408;2023-05-10T14:15:56;6.25;;;3.92;;
24279;SDS011;12395;42.808;23.408;2023-05-10T14:18:23;8.00;;;4.22;;
24279;SDS011;12395;42.808;23.408;2023-05-10T14:20:49;7.18;;;4.15;;
24279;SDS011;12395;42.808;23.408;2023-05-10T14:23:14;7.40;;;4.00;;
24279;SDS011;12395;42.808;23.408;2023-05-10T14:25:40;6.30;;;3.88;;
24279;SDS011;12395;42.808;23.408;2023-05-10T14:28:05;6.80;;;3.80;;
24279;SDS011;12395;42.808;23.408;2023-05-10T14:30:31;6.50;;;3.67;;
24279;SDS011;12395;42.808;23.408;2023-05-10T14:32:56;6.28;;;3.80;;
24279;SDS011;12395;42.808;23.408;2023-05-10T14:35:23;6.90;;;3.92;;
24279;SDS011;12395;42.808;23.408;2023-05-10T14:37:48;6.07;;;3.60;;
24279;SDS011;12395;42.808;23.408;2023-05-10T14:40:14;6.78;;;4.00;;
24279;SDS011;12395;42.808;23.408;2023-05-10T14:42:40;7.03;;;3.80;;
24279;SDS011;12395;42.808;23.408;2023-05-10T14:45:07;7.05;;;3.65;;
24279;SDS011;12395;42.808;23.408;2023-05-10T14:47:33;7.73;;;4.13;;
24279;SDS011;12395;42.808;23.408;2023-05-10T14:49:59;6.47;;;3.80;;
24279;SDS011;12395;42.808;23.408;2023-05-10T14:55:46;7.15;;;4.10;;
24279;SDS011;12395;42.808;23.408;2023-05-10T14:58:12;8.18;;;5.35;;
24279;SDS011;12395;42.808;23.408;2023-05-10T15:00:37;7.35;;;3.72;;
24279;SDS011;12395;42.808;23.408;2023-05-10T15:03:02;9.18;;;4.85;;
24279;SDS011;12395;42.808;23.408;2023-05-10T15:05:28;8.20;;;3.97;;
24279;SDS011;12395;42.808;23.408;2023-05-10T15:07:53;6.63;;;4.28;;
24279;SDS011;12395;42.808;23.408;2023-05-10T15:10:19;9.73;;;4.68;;
24279;SDS011;12395;42.808;23.408;2023-05-10T15:12:44;7.93;;;4.50;;
24279;SDS011;12395;42.808;23.408;2023-05-10T15:15:10;7.45;;;4.22;;
24279;SDS011;12395;42.808;23.408;2023-05-10T15:17:35;7.40;;;4.60;;
24279;SDS011;12395;42.808;23.408;2023-05-10T15:20:01;8.60;;;4.00;;
24279;SDS011;12395;42.808;23.408;2023-05-10T15:22:30;6.93;;;4.15;;
24279;SDS011;12395;42.808;23.408;2023-05-10T15:24:56;8.13;;;4.38;;